Time;durP1;ratioP1;P1;durP2;ratioP2;P2;SDS_P1;SDS_P2;PMS_P1;PMS_P2;Temp;Humidity;BMP_temperature;BMP_pressure;BME280_temperature;BME280_humidity;BME280_pressure;Samples;Min_cycle;Max_cycle;Signal;HPM_P1;HPM_P2
2023/05/01 00:01:05;;;;;;;6.57;5.97;;;;;;;8.09;nan;97023.41;4915614;28;20217;-58
2023/05/01 00:03:33;;;;;;;6.40;5.83;;;;;;;8.13;nan;97011.53;4892501;28;20195;-58
2023/05/01 00:06:02;;;;;;;7.07;6.33;;;;;;;8.19;nan;97018.75;4932777;28;20460;-58
2023/05/01 00:08:30;;;;;;;6.60;6.10;;;;;;;8.06;nan;97010.56;4930089;28;20234;-60
2023/05/01 00:11:02;;;;;;;7.03;6.53;;;;;;;8.08;nan;97013.84;4915515;28;20296;-55
2023/05/01 00:13:30;;;;;;;8.07;6.67;;;;;;;8.04;nan;97009.91;4933889;28;20230;-58
2023/05/01 00:15:58;;;;;;;7.20;6.60;;;;;;;7.99;nan;97013.06;4936447;28;20222;-61
2023/05/01 00:18:25;;;;;;;6.60;6.17;;;;;;;8.02;nan;97010.06;4914941;28;20226;-60
2023/05/01 00:20:53;;;;;;;7.83;7.17;;;;;;;8.03;nan;97001.16;4887073;28;20222;-60
2023/05/01 00:23:21;;;;;;;7.57;6.97;;;;;;;8.01;nan;96999.72;4932213;28;20210;-61
2023/05/01 00:25:49;;;;;;;8.20;7.07;;;;;;;8.07;nan;97001.66;4913777;28;21273;-60
2023/05/01 00:28:19;;;;;;;7.83;7.23;;;;;;;8.03;nan;97001.16;4933970;28;20681;-56
2023/05/01 00:30:47;;;;;;;8.63;7.53;;;;;;;8.01;nan;96999.72;4932441;28;20218;-60
2023/05/01 00:33:15;;;;;;;7.73;6.63;;;;;;;8.03;nan;96995.09;4906222;28;20238;-57
2023/05/01 00:35:43;;;;;;;8.17;7.30;;;;;;;7.96;nan;96993.13;4881121;28;20567;-58
2023/05/01 00:38:11;;;;;;;8.27;7.67;;;;;;;7.97;nan;96994.78;4931709;28;20234;-52
2023/05/01 00:40:42;;;;;;;8.10;7.47;;;;;;;7.94;nan;96986.38;4927872;28;20277;-58
2023/05/01 00:43:11;;;;;;;8.03;7.30;;;;;;;7.94;nan;96989.81;4917559;28;20295;-61
2023/05/01 00:45:43;;;;;;;8.37;7.60;;;;;;;7.97;nan;96980.75;4933578;28;20813;-59
2023/05/01 00:48:11;;;;;;;8.23;7.53;;;;;;;8.01;nan;96979.41;4901574;28;20719;-59
2023/05/01 00:50:39;;;;;;;9.43;8.40;;;;;;;7.97;nan;96976.31;4936685;28;20218;-57
2023/05/01 00:53:07;;;;;;;8.90;7.80;;;;;;;7.99;nan;96977.97;4878014;28;20234;-61
2023/05/01 00:55:35;;;;;;;8.83;7.90;;;;;;;7.97;nan;96981.59;4929908;28;20421;-62
2023/05/01 00:58:03;;;;;;;8.63;7.87;;;;;;;7.93;nan;96975.00;4909973;28;20340;-63
2023/05/01 01:00:31;;;;;;;8.70;7.80;;;;;;;7.97;nan;96980.75;4933401;28;21049;-61
2023/05/01 01:03:01;;;;;;;8.97;8.17;;;;;;;7.94;nan;96973.19;4928176;28;20761;-61
2023/05/01 01:05:31;;;;;;;9.40;8.20;;;;;;;7.90;nan;96970.06;4924548;28;20773;-61
2023/05/01 01:08:04;;;;;;;8.30;7.57;;;;;;;7.84;nan;96964.66;4880826;28;20430;-62
2023/05/01 01:10:40;;;;;;;8.47;7.67;;;;;;;7.74;nan;96963.03;4931884;28;21970;-63
2023/05/01 01:13:14;;;;;;;8.63;7.53;;;;;;;7.72;nan;96962.38;4903879;28;20321;-65
2023/05/01 01:15:44;;;;;;;8.90;8.10;;;;;;;7.72;nan;96961.59;4936596;28;20623;-59
2023/05/01 01:18:17;;;;;;;9.60;8.70;;;;;;;7.67;nan;96964.72;4908378;28;20256;-61
2023/05/01 01:20:46;;;;;;;8.77;7.90;;;;;;;7.59;nan;96956.84;4935138;28;20800;-60
2023/05/01 01:23:32;;;;;;;8.63;7.83;;;;;;;7.51;nan;96952.41;4877409;28;20515;-62
2023/05/01 01:26:13;;;;;;;9.13;8.40;;;;;;;7.50;nan;96958.69;4933008;28;20241;-62
2023/05/01 01:29:10;;;;;;;9.83;8.33;;;;;;;7.45;nan;96950.47;4916806;28;20294;-63
2023/05/01 01:31:45;;;;;;;9.97;8.80;;;;;;;7.39;nan;96951.97;4924128;28;20215;-64
2023/05/01 01:34:17;;;;;;;9.70;8.80;;;;;;;7.35;nan;96948.00;4911826;28;20296;-59
2023/05/01 01:36:49;;;;;;;9.20;8.33;;;;;;;7.30;nan;96942.44;4926420;28;20594;-61
2023/05/01 01:39:25;;;;;;;9.03;8.30;;;;;;;7.24;nan;96946.59;4876771;28;20421;-62
2023/05/01 01:41:53;;;;;;;9.23;8.40;;;;;;;7.23;nan;96944.94;4930912;28;20273;-63
2023/05/01 01:44:27;;;;;;;9.17;8.37;;;;;;;7.24;nan;96944.75;4909231;28;21059;-60
2023/05/01 01:46:56;;;;;;;10.30;9.40;;;;;;;7.17;nan;96949.06;4934500;28;20213;-62
2023/05/01 01:49:27;;;;;;;9.40;8.57;;;;;;;7.18;nan;96936.69;4910705;28;20578;-60
2023/05/01 01:51:56;;;;;;;9.87;8.87;;;;;;;7.09;nan;96931.44;4918788;28;20288;-60
2023/05/01 01:54:29;;;;;;;9.20;8.40;;;;;;;7.02;nan;96932.31;4900532;28;20238;-64
2023/05/01 01:57:00;;;;;;;9.37;8.60;;;;;;;6.98;nan;96929.16;4934178;28;20583;-61
2023/05/01 01:59:30;;;;;;;9.97;9.07;;;;;;;6.94;nan;96928.66;4908432;28;20206;-58
2023/05/01 02:01:59;;;;;;;9.43;8.63;;;;;;;6.92;nan;96924.59;4933370;28;20330;-61
2023/05/01 02:04:28;;;;;;;10.73;9.90;;;;;;;6.87;nan;96925.06;4909944;28;20484;-62
2023/05/01 02:06:57;;;;;;;9.20;8.53;;;;;;;6.84;nan;96929.88;4930861;28;20215;-63
2023/05/01 02:09:25;;;;;;;9.90;9.10;;;;;;;6.77;nan;96919.97;4880313;28;20724;-60
2023/05/01 02:11:54;;;;;;;10.93;9.93;;;;;;;6.74;nan;96922.94;4936298;28;20207;-64
2023/05/01 02:14:23;;;;;;;10.77;9.60;;;;;;;6.67;nan;96914.06;4936925;28;20248;-59
2023/05/01 02:16:51;;;;;;;9.93;9.07;;;;;;;6.55;nan;96913.56;4914440;28;20884;-62
2023/05/01 02:19:20;;;;;;;10.17;9.27;;;;;;;6.46;nan;96914.56;4928598;28;20230;-63
2023/05/01 02:21:49;;;;;;;9.20;8.30;;;;;;;6.33;nan;96908.00;4913964;28;20214;-63
2023/05/01 02:24:18;;;;;;;9.70;8.80;;;;;;;6.21;nan;96920.63;4882459;28;20952;-61
2023/05/01 02:26:49;;;;;;;9.63;8.93;;;;;;;6.09;nan;96914.06;4909811;28;21595;-61
2023/05/01 02:29:17;;;;;;;8.90;8.20;;;;;;;6.01;nan;96909.59;4938938;28;20673;-61
2023/05/01 02:31:45;;;;;;;10.37;9.57;;;;;;;5.98;nan;96901.16;4912463;28;20219;-60
2023/05/01 02:34:13;;;;;;;9.13;8.33;;;;;;;5.93;nan;96907.72;4935743;28;20241;-63
2023/05/01 02:36:41;;;;;;;9.03;8.13;;;;;;;5.76;nan;96901.63;4914552;28;20640;-60
2023/05/01 02:39:10;;;;;;;10.30;9.40;;;;;;;5.75;nan;96901.78;4936126;28;20280;-60
2023/05/01 02:41:38;;;;;;;12.03;9.03;;;;;;;5.75;nan;96902.59;4882421;28;21574;-60
2023/05/01 02:44:07;;;;;;;10.03;9.17;;;;;;;5.72;nan;96902.13;4937410;28;20198;-60
2023/05/01 02:46:36;;;;;;;8.83;8.03;;;;;;;5.69;nan;96908.50;4922588;28;20509;-60
2023/05/01 02:49:05;;;;;;;10.63;9.53;;;;;;;5.62;nan;96896.97;4934234;28;20756;-61
2023/05/01 02:51:34;;;;;;;10.30;9.47;;;;;;;5.57;nan;96894.81;4928506;28;20210;-59
2023/05/01 02:54:02;;;;;;;10.13;9.30;;;;;;;5.59;nan;96900.75;4926393;28;20241;-61
2023/05/01 02:56:31;;;;;;;9.47;8.57;;;;;;;5.48;nan;96886.06;4886135;28;20736;-59
2023/05/01 02:58:59;;;;;;;10.23;9.37;;;;;;;5.42;nan;96886.72;4937554;28;20806;-61
2023/05/01 03:01:27;;;;;;;10.40;9.50;;;;;;;5.41;nan;96881.63;4933883;28;20708;-62
2023/05/01 03:03:55;;;;;;;10.83;9.93;;;;;;;5.44;nan;96879.50;4919553;28;20600;-57
2023/05/01 03:06:22;;;;;;;10.00;9.17;;;;;;;5.39;nan;96884.41;4937363;28;20217;-58
2023/05/01 03:08:50;;;;;;;10.90;9.97;;;;;;;5.38;nan;96872.25;4907393;28;20264;-61
2023/05/01 03:11:18;;;;;;;11.13;10.07;;;;;;;5.38;nan;96879.31;4891596;28;20226;-55
2023/05/01 03:13:48;;;;;;;11.20;10.07;;;;;;;5.39;nan;96876.53;4933853;28;20268;-61
2023/05/01 03:16:15;;;;;;;11.97;10.77;;;;;;;5.36;nan;96871.59;4932736;28;20669;-61
2023/05/01 03:18:43;;;;;;;10.43;9.60;;;;;;;5.35;nan;96867.31;4915517;28;20241;-59
2023/05/01 03:21:12;;;;;;;10.60;9.60;;;;;;;5.31;nan;96871.25;4933968;28;20277;-62
2023/05/01 03:23:40;;;;;;;11.43;10.43;;;;;;;5.19;nan;96868.91;4908945;28;21160;-62
2023/05/01 03:26:08;;;;;;;10.77;9.77;;;;;;;5.22;nan;96860.72;4928759;28;20206;-61
2023/05/01 03:28:36;;;;;;;10.07;9.27;;;;;;;5.29;nan;96863.50;4886106;28;20792;-57
2023/05/01 03:31:05;;;;;;;10.13;9.23;;;;;;;5.20;nan;96869.72;4937450;28;20210;-55
2023/05/01 03:33:32;;;;;;;12.00;10.87;;;;;;;5.13;nan;96861.66;4913549;28;20225;-60
2023/05/01 03:36:02;;;;;;;11.53;10.43;;;;;;;5.10;nan;96867.22;4936803;28;20332;-53
2023/05/01 03:38:30;;;;;;;10.80;9.80;;;;;;;5.08;nan;96863.91;4910061;28;20232;-60
2023/05/01 03:40:58;;;;;;;10.67;9.77;;;;;;;5.07;nan;96854.38;4937279;28;20218;-59
2023/05/01 03:43:25;;;;;;;11.33;10.33;;;;;;;4.98;nan;96850.94;4886664;28;20660;-61
2023/05/01 03:45:53;;;;;;;11.57;10.47;;;;;;;4.96;nan;96852.88;4937776;28;20324;-58
2023/05/01 03:48:23;;;;;;;11.90;10.80;;;;;;;4.90;nan;96854.31;4906297;28;20305;-60
2023/05/01 03:50:51;;;;;;;11.87;10.83;;;;;;;4.90;nan;96849.06;4937147;28;20214;-62
2023/05/01 03:53:18;;;;;;;11.23;10.33;;;;;;;4.89;nan;96847.44;4915017;28;20222;-60
2023/05/01 03:55:46;;;;;;;10.87;9.97;;;;;;;4.86;nan;96846.91;4935270;28;20230;-58
2023/05/01 03:58:14;;;;;;;12.47;11.27;;;;;;;4.82;nan;96841.16;4883379;28;20529;-61
2023/05/01 04:00:41;;;;;;;12.40;11.20;;;;;;;4.74;nan;96847.19;4931838;28;21331;-60
2023/05/01 04:03:09;;;;;;;13.30;11.47;;;;;;;4.75;nan;96845.41;4915633;28;20729;-60
2023/05/01 04:05:38;;;;;;;13.03;11.73;;;;;;;4.76;nan;96844.41;4934905;28;20619;-59
2023/05/01 04:08:06;;;;;;;13.07;11.73;;;;;;;4.72;nan;96840.44;4932804;28;20794;-59
2023/05/01 04:10:33;;;;;;;13.27;12.03;;;;;;;4.72;nan;96840.44;4915912;28;20214;-62
2023/05/01 04:13:01;;;;;;;12.03;11.03;;;;;;;4.81;nan;96846.56;4937833;28;20476;-58
2023/05/01 04:15:29;;;;;;;13.00;11.80;;;;;;;4.82;nan;96846.41;4887542;28;20533;-60
2023/05/01 04:17:56;;;;;;;12.57;11.43;;;;;;;4.76;nan;96834.72;4914801;28;20250;-62
2023/05/01 04:20:24;;;;;;;11.47;10.67;;;;;;;4.77;nan;96840.81;4936362;28;20474;-61
2023/05/01 04:22:53;;;;;;;12.43;11.40;;;;;;;4.90;nan;96835.09;4932528;28;20722;-58
2023/05/01 04:25:21;;;;;;;13.77;12.57;;;;;;;4.86;nan;96836.41;4916777;28;20694;-62
2023/05/01 04:27:49;;;;;;;14.20;12.83;;;;;;;4.95;nan;96842.53;4936923;28;20429;-61
2023/05/01 04:30:17;;;;;;;12.70;11.60;;;;;;;5.01;nan;96834.84;4886519;28;20249;-56
2023/05/01 04:32:45;;;;;;;12.60;11.50;;;;;;;5.05;nan;96844.06;4909775;28;20762;-57
2023/05/01 04:35:12;;;;;;;12.30;11.30;;;;;;;5.11;nan;96834.72;4935224;28;20560;-57
2023/05/01 04:37:40;;;;;;;13.70;12.50;;;;;;;5.13;nan;96835.41;4932179;28;20626;-58
2023/05/01 04:40:11;;;;;;;12.93;11.83;;;;;;;5.23;nan;96840.50;4916163;28;20570;-58
2023/05/01 04:42:38;;;;;;;12.23;11.13;;;;;;;5.25;nan;96833.28;4935388;28;21109;-61
2023/05/01 04:45:07;;;;;;;12.40;11.20;;;;;;;5.32;nan;96829.06;4887423;28;20694;-62
2023/05/01 04:47:34;;;;;;;13.70;12.57;;;;;;;5.50;nan;96836.00;4925292;28;20582;-61
2023/05/01 04:50:03;;;;;;;13.47;12.23;;;;;;;5.59;nan;96828.97;4913703;28;20226;-62
2023/05/01 04:52:30;;;;;;;12.63;11.53;;;;;;;5.73;nan;96828.31;4933161;28;20226;-62
2023/05/01 04:54:58;;;;;;;13.27;12.10;;;;;;;5.78;nan;96822.59;4932397;28;20346;-62
2023/05/01 04:57:27;;;;;;;14.67;13.37;;;;;;;5.89;nan;96824.91;4910625;28;23123;-58
2023/05/01 04:59:56;;;;;;;13.57;12.27;;;;;;;6.01;nan;96832.50;4872741;28;20223;-63
2023/05/01 05:02:24;;;;;;;13.30;12.03;;;;;;;6.06;nan;96831.03;4925262;28;20654;-62
2023/05/01 05:04:53;;;;;;;13.07;11.87;;;;;;;6.17;nan;96829.88;4915823;28;20722;-59
2023/05/01 05:07:20;;;;;;;14.07;12.23;;;;;;;6.22;nan;96834.63;4921728;28;20671;-62
2023/05/01 05:09:48;;;;;;;13.00;12.00;;;;;;;6.31;nan;96827.56;4935186;28;20638;-62
2023/05/01 05:12:16;;;;;;;13.63;12.47;;;;;;;6.44;nan;96838.44;4913049;28;20214;-61
2023/05/01 05:14:46;;;;;;;14.47;12.70;;;;;;;6.63;nan;96831.16;4937848;28;21023;-61
2023/05/01 05:17:14;;;;;;;13.83;12.53;;;;;;;6.55;nan;96841.69;4880168;28;20454;-58
2023/05/01 05:19:42;;;;;;;14.70;13.40;;;;;;;6.69;nan;96845.47;4885013;28;20214;-56
2023/05/01 05:22:11;;;;;;;14.67;13.13;;;;;;;6.58;nan;96836.91;4934325;28;20276;-60
2023/05/01 05:24:39;;;;;;;13.30;12.10;;;;;;;6.65;nan;96844.97;4933629;28;20207;-58
2023/05/01 05:27:07;;;;;;;14.80;13.37;;;;;;;6.84;nan;96843.75;4914235;28;20537;-59
2023/05/01 05:29:35;;;;;;;14.30;13.00;;;;;;;7.03;nan;96849.66;4907153;28;20943;-61
2023/05/01 05:32:05;;;;;;;14.97;12.53;;;;;;;7.06;nan;96844.03;4863324;28;20281;-63
2023/05/01 05:34:32;;;;;;;13.10;12.00;;;;;;;7.09;nan;96846.34;4919263;28;20210;-58
2023/05/01 05:37:00;;;;;;;13.57;12.37;;;;;;;7.20;nan;96838.06;4912774;28;20269;-61
2023/05/01 05:39:29;;;;;;;13.90;12.60;;;;;;;7.10;nan;96837.44;4929112;28;20423;-60
2023/05/01 05:41:57;;;;;;;13.23;11.93;;;;;;;7.31;nan;96833.38;4936049;28;20213;-60
2023/05/01 05:44:25;;;;;;;13.33;12.13;;;;;;;7.22;nan;96833.44;4915688;28;20243;-62
2023/05/01 05:46:53;;;;;;;13.47;12.27;;;;;;;7.14;nan;96845.81;4892349;28;20213;-59
2023/05/01 05:49:22;;;;;;;13.73;12.50;;;;;;;7.31;nan;96844.75;4920683;28;20230;-59
2023/05/01 05:51:49;;;;;;;13.70;12.37;;;;;;;7.49;nan;96843.69;4919304;28;20213;-60
2023/05/01 05:54:17;;;;;;;13.30;12.13;;;;;;;7.57;nan;96842.81;4935884;28;20275;-61
2023/05/01 05:56:45;;;;;;;14.30;12.23;;;;;;;7.46;nan;96842.22;4939251;28;20222;-55
2023/05/01 05:59:12;;;;;;;13.53;12.23;;;;;;;7.61;nan;96839.69;4918708;28;20736;-60
2023/05/01 06:01:42;;;;;;;13.73;12.43;;;;;;;7.79;nan;96836.78;4934760;28;20694;-58
2023/05/01 06:04:10;;;;;;;15.37;14.03;;;;;;;7.89;nan;96841.78;4881777;28;20316;-61
2023/05/01 06:06:39;;;;;;;15.20;13.80;;;;;;;8.20;nan;96834.84;4885312;28;20786;-57
2023/05/01 06:09:07;;;;;;;14.87;13.33;;;;;;;8.36;nan;96833.88;4916520;28;20234;-64
2023/05/01 06:11:36;;;;;;;14.10;12.80;;;;;;;8.52;nan;96836.38;4938934;28;20210;-59
2023/05/01 06:14:03;;;;;;;15.03;13.57;;;;;;;8.51;nan;96832.09;4918361;28;20237;-61
2023/05/01 06:16:31;;;;;;;13.33;12.07;;;;;;;8.65;nan;96834.94;4927726;28;20628;-55
2023/05/01 06:18:59;;;;;;;13.27;12.07;;;;;;;8.83;nan;96830.16;4889364;28;20234;-60
2023/05/01 06:21:27;;;;;;;13.93;12.60;;;;;;;9.07;nan;96830.84;4921459;28;20214;-58
2023/05/01 06:23:56;;;;;;;13.93;12.43;;;;;;;9.11;nan;96820.75;4897028;28;20403;-58
2023/05/01 06:26:25;;;;;;;13.60;12.47;;;;;;;9.32;nan;96821.84;4933630;28;20218;-59
2023/05/01 06:28:53;;;;;;;14.33;12.93;;;;;;;9.40;nan;96819.09;4939017;28;20241;-59
2023/05/01 06:31:21;;;;;;;12.80;11.70;;;;;;;9.84;nan;96828.72;4913861;28;20229;-57
2023/05/01 06:33:48;;;;;;;13.13;11.93;;;;;;;9.97;nan;96813.97;4889925;28;20696;-63
2023/05/01 06:36:16;;;;;;;13.77;12.47;;;;;;;10.02;nan;96803.63;4923411;28;20704;-60
2023/05/01 06:38:47;;;;;;;13.63;12.30;;;;;;;10.07;nan;96809.19;4910371;28;20229;-59
2023/05/01 06:41:16;;;;;;;12.90;11.77;;;;;;;9.95;nan;96808.03;4892460;28;20225;-57
2023/05/01 06:43:44;;;;;;;13.30;12.00;;;;;;;10.02;nan;96808.91;4938380;28;20214;-59
2023/05/01 06:46:12;;;;;;;12.90;11.73;;;;;;;10.20;nan;96799.72;4916318;28;20982;-59
2023/05/01 06:48:39;;;;;;;13.80;12.63;;;;;;;10.28;nan;96797.75;4933274;28;20238;-54
2023/05/01 06:51:07;;;;;;;14.03;12.73;;;;;;;10.46;nan;96783.25;4886061;28;20996;-62
2023/05/01 06:53:35;;;;;;;13.07;11.97;;;;;;;10.68;nan;96784.00;4898618;28;20736;-56
2023/05/01 06:56:03;;;;;;;13.33;12.07;;;;;;;11.05;nan;96790.94;4917465;28;20671;-60
2023/05/01 06:58:32;;;;;;;13.20;12.10;;;;;;;11.23;nan;96793.88;4937462;28;20727;-57
2023/05/01 07:01:00;;;;;;;12.10;11.10;;;;;;;11.47;nan;96790.91;4915938;28;20801;-60
2023/05/01 07:03:28;;;;;;;12.43;11.37;;;;;;;11.78;nan;96792.22;4921367;28;20218;-55
2023/05/01 07:05:55;;;;;;;12.80;11.57;;;;;;;11.65;nan;96793.00;4888634;28;20218;-60
2023/05/01 07:08:24;;;;;;;12.00;11.10;;;;;;;11.91;nan;96797.53;4916537;28;21041;-58
2023/05/01 07:10:52;;;;;;;12.00;10.93;;;;;;;11.97;nan;96787.97;4890283;28;21080;-63
2023/05/01 07:13:20;;;;;;;12.23;11.13;;;;;;;11.77;nan;96778.09;4916609;28;20482;-58
2023/05/01 07:15:49;;;;;;;12.73;11.47;;;;;;;11.75;nan;96782.00;4936329;28;20809;-60
2023/05/01 07:18:18;;;;;;;12.03;10.93;;;;;;;11.64;nan;96781.56;4912680;28;20230;-61
2023/05/01 07:20:48;;;;;;;10.77;9.97;;;;;;;11.61;nan;96781.16;4884698;28;20234;-62
2023/05/01 07:23:16;;;;;;;11.93;10.93;;;;;;;11.59;nan;96786.66;4930983;28;20210;-60
2023/05/01 07:25:45;;;;;;;11.03;10.07;;;;;;;11.60;nan;96790.13;4913381;28;20710;-62
2023/05/01 07:28:12;;;;;;;10.63;9.73;;;;;;;11.67;nan;96783.81;4916328;28;20688;-65
2023/05/01 07:30:40;;;;;;;10.93;9.93;;;;;;;11.80;nan;96782.22;4933345;28;20266;-63
2023/05/01 07:33:10;;;;;;;11.50;10.40;;;;;;;11.92;nan;96777.94;4909932;28;20598;-61
2023/05/01 07:35:38;;;;;;;11.13;10.13;;;;;;;11.98;nan;96773.66;4889372;28;20222;-64
2023/05/01 07:38:05;;;;;;;11.87;10.70;;;;;;;12.15;nan;96766.94;4930173;28;20954;-65
2023/05/01 07:40:34;;;;;;;11.37;10.27;;;;;;;12.65;nan;96770.97;4916014;28;20305;-63
2023/05/01 07:43:01;;;;;;;10.87;9.97;;;;;;;13.01;nan;96782.16;4917021;28;20214;-61
2023/05/01 07:45:29;;;;;;;11.13;10.23;;;;;;;12.57;nan;96784.50;4937179;28;20351;-63
2023/05/01 07:47:57;;;;;;;10.63;9.73;;;;;;;12.49;nan;96785.50;4913608;28;20233;-62
2023/05/01 07:50:26;;;;;;;11.37;10.37;;;;;;;12.48;nan;96775.91;4936776;28;20268;-61
2023/05/01 07:52:54;;;;;;;10.50;9.53;;;;;;;12.71;nan;96772.84;4884176;28;20305;-63
2023/05/01 07:55:22;;;;;;;10.30;9.50;;;;;;;12.88;nan;96773.22;4914237;28;20828;-64
2023/05/01 07:57:50;;;;;;;9.73;8.93;;;;;;;12.82;nan;96770.56;4937869;28;20241;-65
2023/05/01 08:00:18;;;;;;;10.60;9.70;;;;;;;13.03;nan;96774.78;4914314;28;20312;-63
2023/05/01 08:02:46;;;;;;;9.77;8.97;;;;;;;13.02;nan;96773.16;4916347;28;20730;-63
2023/05/01 08:05:13;;;;;;;9.50;8.60;;;;;;;13.17;nan;96775.56;4934119;28;20752;-61
2023/05/01 08:07:43;;;;;;;10.47;9.47;;;;;;;13.38;nan;96778.94;4885215;28;20238;-64
2023/05/01 08:10:11;;;;;;;9.57;8.73;;;;;;;13.50;nan;96779.97;4916169;28;20851;-65
2023/05/01 08:12:38;;;;;;;9.63;8.93;;;;;;;13.52;nan;96777.06;4934607;28;20261;-63
2023/05/01 08:15:07;;;;;;;12.30;9.20;;;;;;;13.41;nan;96773.19;4919880;28;20754;-63
2023/05/01 08:17:35;;;;;;;9.50;8.67;;;;;;;13.78;nan;96768.09;4935937;28;20313;-61
2023/05/01 08:20:03;;;;;;;9.77;9.03;;;;;;;13.82;nan;96769.31;4914466;28;20222;-64
2023/05/01 08:22:31;;;;;;;9.07;8.37;;;;;;;13.89;nan;96763.94;4889571;28;20870;-63
2023/05/01 08:25:00;;;;;;;9.23;8.50;;;;;;;14.06;nan;96764.22;4927833;28;20266;-63
2023/05/01 08:27:28;;;;;;;9.20;8.30;;;;;;;14.18;nan;96767.81;4915009;28;20456;-66
2023/05/01 08:29:56;;;;;;;9.63;8.73;;;;;;;13.93;nan;96770.47;4919774;28;21675;-65
2023/05/01 08:32:24;;;;;;;9.17;8.37;;;;;;;14.33;nan;96766.69;4929980;28;20890;-65
2023/05/01 08:34:52;;;;;;;9.67;8.80;;;;;;;14.66;nan;96760.25;4915199;28;20692;-63
2023/05/01 08:37:19;;;;;;;9.57;8.77;;;;;;;14.73;nan;96763.69;4879859;28;21162;-63
2023/05/01 08:39:47;;;;;;;8.80;8.10;;;;;;;14.56;nan;96760.75;4934619;28;20208;-62
2023/05/01 08:42:16;;;;;;;10.40;8.23;;;;;;;15.00;nan;96757.25;4912467;28;20213;-62
2023/05/01 08:44:45;;;;;;;10.00;8.40;;;;;;;14.98;nan;96768.16;4914535;28;20647;-63
2023/05/01 08:47:16;;;;;;;9.57;8.60;;;;;;;15.08;nan;96756.94;4934870;28;20275;-63
2023/05/01 08:49:45;;;;;;;8.97;8.27;;;;;;;15.31;nan;96755.44;4937061;28;20691;-62
2023/05/01 08:52:14;;;;;;;8.70;8.10;;;;;;;15.32;nan;96759.75;4913127;28;20471;-64
2023/05/01 08:54:43;;;;;;;8.70;8.00;;;;;;;15.41;nan;96749.56;4879203;28;20747;-63
2023/05/01 08:57:12;;;;;;;9.57;8.67;;;;;;;15.33;nan;96738.16;4914491;28;20218;-63
2023/05/01 08:59:41;;;;;;;9.53;8.57;;;;;;;15.53;nan;96745.09;4936566;28;20560;-61
2023/05/01 09:02:09;;;;;;;9.63;8.93;;;;;;;15.70;nan;96745.25;4915447;28;20265;-62
2023/05/01 09:04:38;;;;;;;8.53;7.73;;;;;;;15.73;nan;96752.81;4938798;28;20208;-61
2023/05/01 09:07:06;;;;;;;9.40;8.60;;;;;;;15.74;nan;96749.09;4912695;28;20210;-64
2023/05/01 09:09:34;;;;;;;8.93;8.33;;;;;;;15.51;nan;96749.00;4883561;28;20218;-61
2023/05/01 09:12:08;;;;;;;8.00;7.27;;;;;;;15.94;nan;96749.88;4924173;28;20210;-63
2023/05/01 09:14:36;;;;;;;8.33;7.63;;;;;;;16.20;nan;96738.78;4934838;28;20690;-60
2023/05/01 09:17:05;;;;;;;8.13;7.43;;;;;;;16.23;nan;96728.66;4914159;28;20229;-63
2023/05/01 09:19:33;;;;;;;8.30;7.60;;;;;;;16.39;nan;96732.50;4934593;28;20237;-60
2023/05/01 09:22:01;;;;;;;10.37;7.60;;;;;;;15.40;nan;96727.38;4917102;28;20601;-63
2023/05/01 09:24:29;;;;;;;8.70;8.00;;;;;;;16.02;nan;96728.16;4880763;28;20872;-58
2023/05/01 09:26:57;;;;;;;8.13;7.47;;;;;;;15.93;nan;96724.22;4934996;28;20606;-63
2023/05/01 09:29:39;;;;;;;8.43;7.73;;;;;;;16.27;nan;96722.59;4913639;28;20420;-62
2023/05/01 09:32:15;;;;;;;8.20;7.60;;;;;;;16.12;nan;96731.09;4919382;28;20206;-62
2023/05/01 09:34:43;;;;;;;8.50;7.70;;;;;;;16.20;nan;96721.91;4937376;28;20685;-63
2023/05/01 09:37:13;;;;;;;7.63;7.10;;;;;;;15.47;nan;96732.66;4910704;28;20295;-63
2023/05/01 09:39:41;;;;;;;8.83;8.03;;;;;;;16.27;nan;96724.47;4932292;28;20698;-58
2023/05/01 09:42:09;;;;;;;8.03;7.33;;;;;;;16.30;nan;96722.19;4885417;28;20317;-64
2023/05/01 09:44:42;;;;;;;8.50;7.80;;;;;;;16.30;nan;96714.16;4914223;28;20215;-60
2023/05/01 09:47:12;;;;;;;7.70;7.00;;;;;;;15.70;nan;96723.06;4933589;28;20214;-62
2023/05/01 09:49:50;;;;;;;7.67;6.70;;;;;;;16.25;nan;96719.34;4914361;28;20680;-65
2023/05/01 09:52:18;;;;;;;7.43;6.83;;;;;;;16.65;nan;96720.53;4916500;28;20228;-65
2023/05/01 09:54:46;;;;;;;7.03;6.53;;;;;;;16.91;nan;96713.84;4931494;28;20421;-62
2023/05/01 09:57:13;;;;;;;7.37;6.87;;;;;;;17.40;nan;96714.53;4886943;28;20226;-62
2023/05/01 09:59:41;;;;;;;7.73;7.17;;;;;;;17.46;nan;96709.06;4910364;28;20399;-61
2023/05/01 10:02:27;;;;;;;8.23;7.50;;;;;;;17.97;nan;96715.50;4934961;28;20217;-62
2023/05/01 10:04:59;;;;;;;6.90;6.40;;;;;;;18.35;nan;96714.00;4914681;28;20695;-62
2023/05/01 10:07:27;;;;;;;7.60;6.90;;;;;;;18.27;nan;96703.69;4911239;28;20745;-61
2023/05/01 10:09:55;;;;;;;6.53;6.00;;;;;;;17.91;nan;96718.13;4935455;28;20317;-64
2023/05/01 10:12:26;;;;;;;7.40;6.77;;;;;;;17.56;nan;96711.09;4887805;28;20435;-64
2023/05/01 10:14:54;;;;;;;8.23;7.50;;;;;;;18.00;nan;96704.34;4913452;28;20305;-62
2023/05/01 10:17:22;;;;;;;9.13;7.20;;;;;;;18.08;nan;96703.94;4935720;28;20313;-65
2023/05/01 10:19:50;;;;;;;7.40;6.80;;;;;;;18.62;nan;96708.75;4910269;28;20874;-62
2023/05/01 10:22:19;;;;;;;6.67;6.17;;;;;;;18.31;nan;96707.50;4909980;28;20647;-63
2023/05/01 10:24:47;;;;;;;7.90;7.07;;;;;;;18.36;nan;96703.03;4926884;28;20395;-63
2023/05/01 10:27:15;;;;;;;6.93;6.43;;;;;;;18.33;nan;96710.75;4887936;28;20218;-65
2023/05/01 10:29:46;;;;;;;6.93;6.27;;;;;;;18.39;nan;96709.78;4914831;28;20213;-64
2023/05/01 10:32:13;;;;;;;7.13;6.43;;;;;;;17.75;nan;96705.53;4936804;28;20761;-61
2023/05/01 10:34:47;;;;;;;7.23;6.63;;;;;;;17.11;nan;96699.28;4921654;28;20238;-62
2023/05/01 10:37:19;;;;;;;7.23;6.63;;;;;;;17.45;nan;96706.59;4937741;28;20316;-62
2023/05/01 10:39:48;;;;;;;6.43;5.87;;;;;;;17.41;nan;96705.47;4905358;28;20561;-63
2023/05/01 10:42:16;;;;;;;6.67;6.17;;;;;;;18.07;nan;96700.44;4889878;28;20230;-62
2023/05/01 10:44:46;;;;;;;6.67;6.07;;;;;;;17.88;nan;96707.09;4938584;28;20684;-64
2023/05/01 10:47:46;;;;;;;6.97;6.27;;;;;;;18.14;nan;96704.81;4914213;28;20275;-65
2023/05/01 10:50:14;;;;;;;6.53;5.90;;;;;;;18.63;nan;96688.94;4923355;28;20222;-64
2023/05/01 10:53:16;;;;;;;6.10;5.60;;;;;;;19.33;nan;96699.16;4914644;28;20515;-64
2023/05/01 10:55:47;;;;;;;6.40;5.80;;;;;;;18.91;nan;96702.41;4933939;28;20678;-64
2023/05/01 10:58:54;;;;;;;5.97;5.57;;;;;;;18.68;nan;96696.22;4889727;28;20230;-64
2023/05/01 11:01:30;;;;;;;5.90;5.50;;;;;;;18.06;nan;96695.34;4937267;28;20222;-62
2023/05/01 11:03:59;;;;;;;5.30;4.90;;;;;;;18.17;nan;96693.59;4928332;28;20471;-65
2023/05/01 11:06:27;;;;;;;5.80;5.40;;;;;;;18.83;nan;96692.91;4919564;28;20376;-65
2023/05/01 11:08:55;;;;;;;4.97;4.63;;;;;;;18.17;nan;96690.94;4912129;28;20565;-66
2023/05/01 11:11:50;;;;;;;5.30;5.00;;;;;;;18.25;nan;96687.84;4936770;28;20282;-64
2023/05/01 11:14:18;;;;;;;4.67;4.37;;;;;;;18.58;nan;96680.81;4886745;28;20290;-61
2023/05/01 11:16:47;;;;;;;4.83;4.50;;;;;;;18.56;nan;96680.25;4917463;28;20442;-62
2023/05/01 11:19:51;;;;;;;4.37;4.07;;;;;;;18.80;nan;96686.19;4938590;28;20234;-61
2023/05/01 11:22:19;;;;;;;3.97;3.70;;;;;;;18.83;nan;96686.75;4910704;28;20217;-59
2023/05/01 11:24:47;;;;;;;4.00;3.70;;;;;;;18.52;nan;96679.09;4913333;28;20828;-61
2023/05/01 11:27:17;;;;;;;3.70;3.50;;;;;;;18.61;nan;96669.59;4936618;28;20241;-65
2023/05/01 11:29:48;;;;;;;4.03;3.73;;;;;;;19.08;nan;96678.22;4886903;28;20253;-62
2023/05/01 11:32:19;;;;;;;3.57;3.27;;;;;;;18.63;nan;96674.69;4938610;28;20226;-62
2023/05/01 11:34:48;;;;;;;3.87;3.37;;;;;;;19.03;nan;96670.09;4915923;28;20611;-63
2023/05/01 11:37:16;;;;;;;3.50;3.30;;;;;;;19.14;nan;96674.53;4916974;28;20502;-63
2023/05/01 11:39:49;;;;;;;3.97;3.77;;;;;;;19.36;nan;96666.44;4914318;28;21063;-63
2023/05/01 11:42:20;;;;;;;3.37;3.17;;;;;;;20.02;nan;96661.91;4937924;28;20218;-65
2023/05/01 11:45:10;;;;;;;3.73;3.53;;;;;;;18.37;nan;96659.06;4886810;28;20744;-59
2023/05/01 11:47:38;;;;;;;3.13;2.93;;;;;;;19.51;nan;96664.97;4914741;28;20274;-64
2023/05/01 11:50:07;;;;;;;4.27;3.87;;;;;;;19.86;nan;96666.31;4938897;28;20273;-63
2023/05/01 11:52:43;;;;;;;3.90;3.60;;;;;;;20.36;nan;96652.72;4919113;28;20222;-64
2023/05/01 11:55:10;;;;;;;3.30;3.07;;;;;;;19.00;nan;96665.25;4935834;28;20581;-64
2023/05/01 11:57:47;;;;;;;3.53;3.23;;;;;;;19.58;nan;96660.19;4914403;28;20234;-64
2023/05/01 12:00:16;;;;;;;3.63;3.40;;;;;;;19.40;nan;96658.69;4889855;28;20289;-63